METAR Data
IDs: Format: Raw Decoded Include TAF

Data at: 2350 UTC 25 Oct 2021

PAKH 252256Z AUTO 17005KT 10SM FEW026 08/03 A2904 RMK AO2 SLP835 T00780028
PAKH 252156Z AUTO 02006KT 10SM CLR 07/02 A2905 RMK AO2 SLP838 T00670017
PAKH 252056Z AUTO 04005KT 10SM BKN080 06/02 A2906 RMK AO2 SLP841 T00560022 50001
PAKH 251956Z AUTO 04006KT 10SM OVC075 04/03 A2906 RMK AO2 SLP842 T00440028
PAKH 251856Z AUTO 05006KT 10SM OVC070 04/02 A2906 RMK AO2 SLP841 T00390022
PAKH 251756Z AUTO 05007KT 10SM SCT030 BKN065 03/01 A2905 RMK AO2 SLP840 T00280011 10039 20028 58001
PAKH 251656Z AUTO 03005KT 10SM BKN026 OVC060 03/02 A2906 RMK AO2 SLP841 T00280022
PAKH 251651Z AUTO 03006KT 10SM BKN026 OVC060 03/02 A2906 RMK AO2
PAKH 251556Z AUTO 04005KT 10SM FEW021 BKN065 OVC080 03/02 A2906 RMK AO2 SLP841 T00280017
PAKH 251536Z AUTO 03006KT 10SM SCT021 BKN060 03/02 A2906 RMK AO2
PAKH 251456Z AUTO 03006KT 10SM OVC019 03/02 A2906 RMK AO2 SLP843 T00330022 56016
PAKH 251356Z AUTO 02005KT 10SM OVC015 04/03 A2908 RMK AO2 SLP847 T00390028
PAKH 251256Z AUTO 03006KT 10SM OVC017 04/03 A2909 RMK AO2 SLP853 T00390028
PAKH 251156Z AUTO 03006KT 10SM OVC021 04/03 A2911 RMK AO2 RAE23 SLP859 P0001 60003 70003 T00390028 10044 20039 58014
PAKH 251056Z AUTO 08007KT 5SM -RA BR FEW007 BKN017 OVC022 04/03 A2913 RMK AO2 RAB36 SLP867 P0002 T00440033
PAKH 251054Z AUTO 08007KT 4SM -RA BR FEW007 BKN017 OVC022 04/03 A2913 RMK AO2 RAB36 P0002
PAKH 250956Z AUTO 01005KT 10SM BKN024 OVC031 04/03 A2915 RMK AO2 RAB19E41 SLP873 P0000 T00390033
PAKH 250856Z AUTO 03005KT 10SM OVC027 04/03 A2918 RMK AO2 RAB10E35 SLP881 P0000 60000 T00390033 401000039 56022
PAKH 250841Z AUTO 04005KT 10SM SCT025 BKN029 OVC055 04/03 A2918 RMK AO2 RAB10E35 P0000
PAKH 250828Z AUTO 03006KT 10SM -RA FEW016 BKN038 OVC055 04/03 A2919 RMK AO2 RAB10 P0000
PAKH 250807Z AUTO 04004KT 10SM FEW012 BKN027 OVC120 04/03 A2919 RMK AO2
PAKH 250656Z AUTO 01005KT 10SM SCT027 BKN036 04/03 A2922 RMK AO2 RAB12E32 SLP895 P0000 T00390033
PAKH 250634Z AUTO 03006KT 10SM FEW019 BKN027 OVC034 04/03 A2923 RMK AO2 RAB12E32 P0000
PAKH 250556Z AUTO 02005KT 10SM OVC037 04/03 A2924 RMK AO2 SLP904 T00440033 10100 20039 56022
PAKH 250456Z AUTO 00000KT 10SM OVC035 04/03 A2926 RMK AO2 SLP910 T00390028
PAKH 250440Z AUTO 00000KT 10SM SCT022 OVC033 04/03 A2927 RMK AO2
PAKH 250432Z AUTO 00000KT 10SM BKN022 OVC033 04/03 A2927 RMK AO2
PAKH 250356Z AUTO 00000KT 10SM SCT027 BKN033 04/02 A2928 RMK AO2 SLP917 T00390017
PAKH 250256Z AUTO 00000KT 10SM BKN027 OVC041 05/02 A2931 RMK AO2 SLP925 T00500022 58014
PAKH 250209Z AUTO 02004KT 10SM BKN022 OVC044 07/04 A2933 RMK AO2
PAKH 250156Z AUTO 03005KT 10SM SCT022 OVC044 07/04 A2933 RMK AO2 SLP932 T00720039
PAKH 250056Z AUTO 22006KT 10SM FEW023 OVC042 10/03 A2935 RMK AO2 SLP939 T01000033
PAKH 242356Z AUTO 00000KT 10SM OVC044 09/04 A2937 RMK AO2 SLP946 T00940039 10094 20039 58011
PAKH 242256Z AUTO 29009KT 10SM CLR 08/04 A2939 RMK AO2 SLP952 T00780039
PAKH 242156Z AUTO 21005KT 10SM FEW018 BKN043 09/04 A2940 RMK AO2 SLP956 T00890039
PAKH 242056Z AUTO 05005KT 10SM CLR 08/04 A2940 RMK AO2 SLP957 T00830039 58004
PAKH 241956Z AUTO 00000KT 10SM CLR 09/04 A2941 RMK AO2 SLP962 T00890044
PAKH 241856Z AUTO 15004KT 10SM FEW043 06/04 A2941 RMK AO2 SLP961 T00610039
PAKH 241756Z AUTO 00000KT 10SM CLR 04/02 A2941 RMK AO2 SLP961 T00390022 10072 20039 51016
PAKH 241656Z AUTO 35008KT 10SM CLR 06/03 A2940 RMK AO2 SLP957 T00560028
PAKH 241556Z AUTO 31014KT 10SM CLR 05/03 A2939 RMK AO2 SLP952 T00500033
PAKH 241456Z AUTO 32011KT 10SM CLR 06/03 A2936 RMK AO2 SLP945 T00560033 53029
PAKH 241356Z AUTO 33013KT 10SM FEW034 06/03 A2933 RMK AO2 SLP934 T00560033
PAKH 241256Z AUTO 32012KT 10SM OVC034 07/03 A2931 RMK AO2 SLP927 T00670033
PAKH 241156Z AUTO 32013KT 10SM BKN043 07/03 A2928 RMK AO2 SLP916 70001 T00720033 10078 20061 51037